createdAt,value
2022-09-05T00:02:17.814Z,11.07
2022-09-05T00:05:23.554Z,11.06
2022-09-05T00:08:30.446Z,11.10
2022-09-05T00:11:42.899Z,11.11
2022-09-05T00:15:15.833Z,11.12
2022-09-05T00:23:17.594Z,11.16
2022-09-05T00:24:37.608Z,11.19
2022-09-05T00:28:35.945Z,11.08
2022-09-05T00:31:54.275Z,11.06
2022-09-05T00:35:06.766Z,11.06
2022-09-05T00:38:12.574Z,11.08
2022-09-05T00:41:20.713Z,11.08
2022-09-05T00:44:28.852Z,11.11
2022-09-05T00:47:34.741Z,11.11
2022-09-05T00:50:40.858Z,11.08
2022-09-05T00:53:46.608Z,11.07
2022-09-05T00:57:05.009Z,11.04
2022-09-05T01:00:17.089Z,11.00
2022-09-05T01:03:25.002Z,10.97
2022-09-05T01:06:30.922Z,10.95
2022-09-05T01:09:37.379Z,10.94
2022-09-05T01:12:52.905Z,10.91
2022-09-05T01:16:19.622Z,10.84
2022-09-05T01:19:26.446Z,10.78
2022-09-05T01:22:33.905Z,10.71
2022-09-05T01:25:47.133Z,10.64
2022-09-05T01:29:17.164Z,10.59
2022-09-05T01:32:26.122Z,10.54
2022-09-05T01:35:32.507Z,10.47
2022-09-05T01:38:38.590Z,10.42
2022-09-05T01:41:48.541Z,10.38
2022-09-05T01:44:57.058Z,10.28
2022-09-05T01:48:03.246Z,10.21
2022-09-05T01:51:29.217Z,10.13
2022-09-05T01:54:37.157Z,10.04
2022-09-05T01:57:43.707Z,9.94
2022-09-05T02:00:49.784Z,9.88
2022-09-05T02:03:58.080Z,9.84
2022-09-05T02:10:37.703Z,9.79
2022-09-05T02:13:43.583Z,9.74
2022-09-05T02:16:53.984Z,9.68
2022-09-05T02:19:59.956Z,9.62
2022-09-05T02:23:40.178Z,9.59
2022-09-05T02:26:31.851Z,9.52
2022-09-05T02:29:37.911Z,9.51
2022-09-05T02:32:45.743Z,9.49
2022-09-05T02:35:52.228Z,9.45
2022-09-05T02:43:51.879Z,9.41
2022-09-05T02:45:21.086Z,9.38
2022-09-05T02:46:09.484Z,9.34
2022-09-05T02:50:14.157Z,9.31
2022-09-05T02:57:40.449Z,9.26
2022-09-05T02:57:41.359Z,9.27
2022-09-05T02:59:36.860Z,9.24
2022-09-05T03:02:42.417Z,9.22
2022-09-05T03:05:48.385Z,9.20
2022-09-05T03:08:55.903Z,9.16
2022-09-05T03:12:18.997Z,9.12
2022-09-05T03:15:31.050Z,9.07
2022-09-05T03:18:36.942Z,9.03
2022-09-05T03:21:43.487Z,9.00
2022-09-05T03:24:55.827Z,8.99
2022-09-05T03:28:04.535Z,8.94
2022-09-05T03:31:22.069Z,8.91
2022-09-05T03:34:28.985Z,8.91
2022-09-05T03:37:35.305Z,8.92
2022-09-05T03:40:41.964Z,8.89
2022-09-05T03:43:47.924Z,8.89
2022-09-05T03:47:00.111Z,8.92
2022-09-05T03:53:29.409Z,8.96
2022-09-05T03:57:19.057Z,8.89
2022-09-05T03:57:25.010Z,8.95
2022-09-05T04:00:30.502Z,8.88
2022-09-05T04:07:41.458Z,8.82
2022-09-05T04:08:17.040Z,8.81
2022-09-05T04:10:29.945Z,8.78
2022-09-05T04:13:35.970Z,8.73
2022-09-05T04:16:43.214Z,8.71
2022-09-05T04:19:50.161Z,8.68
2022-09-05T04:22:57.230Z,8.66
2022-09-05T04:26:12.569Z,8.63
2022-09-05T04:29:18.858Z,8.60
2022-09-05T04:32:25.022Z,8.56
2022-09-05T04:35:33.432Z,8.51
2022-09-05T04:38:39.562Z,8.50
2022-09-05T04:41:46.192Z,8.50
2022-09-05T04:44:55.797Z,8.54
2022-09-05T04:48:07.346Z,8.60
2022-09-05T04:51:15.162Z,8.69
2022-09-05T04:54:21.509Z,8.75
2022-09-05T04:57:32.746Z,8.84
2022-09-05T05:04:23.749Z,8.98
2022-09-05T05:06:09.093Z,9.15
2022-09-05T05:07:33.359Z,9.37
2022-09-05T05:15:21.737Z,9.60
2022-09-05T05:18:00.929Z,9.85
2022-09-05T05:18:13.271Z,10.04
2022-09-05T05:21:18.284Z,10.21
2022-09-05T05:24:23.790Z,10.34
2022-09-05T05:27:33.342Z,10.40
2022-09-05T05:30:39.718Z,10.51
2022-09-05T05:33:49.532Z,10.61
2022-09-05T05:40:40.972Z,10.92
2022-09-05T05:43:56.664Z,11.12
2022-09-05T05:47:02.654Z,11.37
2022-09-05T05:50:11.530Z,11.60
2022-09-05T05:53:33.558Z,11.86
2022-09-05T05:56:43.450Z,12.14
2022-09-05T05:59:56.352Z,12.40
2022-09-05T06:03:25.978Z,12.68
2022-09-05T06:06:33.185Z,12.81
2022-09-05T06:14:51.679Z,12.83
2022-09-05T06:15:00.910Z,12.88
2022-09-05T06:16:36.396Z,13.15
2022-09-05T06:20:15.022Z,13.39
2022-09-05T06:23:10.548Z,13.63
2022-09-05T06:26:33.628Z,13.95
2022-09-05T06:29:41.070Z,14.13
2022-09-05T06:32:58.051Z,14.35
2022-09-05T06:36:07.318Z,14.58
2022-09-05T06:39:19.545Z,14.79
2022-09-05T06:42:42.713Z,14.76
2022-09-05T06:45:58.590Z,14.76
2022-09-05T06:49:32.197Z,14.75
2022-09-05T06:52:36.153Z,14.77
2022-09-05T06:55:42.462Z,14.74
2022-09-05T06:58:48.285Z,14.73
2022-09-05T07:02:01.154Z,14.78
2022-09-05T07:05:36.877Z,14.83
2022-09-05T07:08:37.160Z,14.86
2022-09-05T07:11:59.502Z,14.92
2022-09-05T07:15:08.915Z,14.98
2022-09-05T07:18:16.107Z,15.06
2022-09-05T07:21:26.801Z,15.18
2022-09-05T07:24:55.173Z,15.31
2022-09-05T07:28:29.078Z,15.47
2022-09-05T07:31:37.157Z,15.64
2022-09-05T07:34:45.154Z,15.72
2022-09-05T07:37:55.268Z,15.82
2022-09-05T07:41:05.933Z,15.90
2022-09-05T07:44:11.355Z,16.03
2022-09-05T07:47:23.591Z,16.18
2022-09-05T07:55:00.522Z,16.26
2022-09-05T07:56:59.385Z,16.31
2022-09-05T07:57:30.710Z,16.35
2022-09-05T08:00:37.326Z,16.50
2022-09-05T08:03:45.494Z,16.62
2022-09-05T08:07:47.734Z,16.75
2022-09-05T08:10:35.599Z,16.91
2022-09-05T08:14:10.466Z,17.05
2022-09-05T08:17:26.347Z,17.19
2022-09-05T08:20:37.147Z,17.30
2022-09-05T08:23:46.354Z,17.28
2022-09-05T08:26:53.543Z,17.44
2022-09-05T08:30:24.791Z,17.61
2022-09-05T08:33:36.134Z,17.72
2022-09-05T08:36:46.205Z,17.83
2022-09-05T08:39:54.246Z,17.89
2022-09-05T08:46:10.205Z,17.91
2022-09-05T08:46:49.783Z,17.91
2022-09-05T08:49:59.302Z,17.93
2022-09-05T08:53:26.813Z,18.02
2022-09-05T08:56:32.527Z,17.97
2022-09-05T08:59:38.293Z,17.96
2022-09-05T09:03:09.571Z,17.85
2022-09-05T09:06:16.215Z,17.82
2022-09-05T09:09:24.834Z,17.90
2022-09-05T09:12:32.047Z,18.08
2022-09-05T09:15:37.943Z,18.21
2022-09-05T09:18:44.977Z,18.36
2022-09-05T09:21:53.755Z,18.40
2022-09-05T09:25:15.123Z,18.47
2022-09-05T09:28:48.745Z,18.66
2022-09-05T09:31:48.226Z,18.91
2022-09-05T09:34:57.139Z,19.04
2022-09-05T09:38:05.465Z,19.11
2022-09-05T09:41:19.367Z,19.15
2022-09-05T09:44:25.145Z,19.02
2022-09-05T09:47:31.481Z,19.06
2022-09-05T09:50:38.090Z,19.12
2022-09-05T09:53:53.026Z,19.04
2022-09-05T09:57:05.676Z,18.95
2022-09-05T10:00:12.051Z,18.96
2022-09-05T10:04:31.169Z,18.98
2022-09-05T10:10:43.933Z,19.35
2022-09-05T10:10:58.711Z,19.15
2022-09-05T10:13:44.350Z,19.50
2022-09-05T10:16:53.484Z,19.49
2022-09-05T10:20:10.019Z,19.44
2022-09-05T10:23:18.522Z,19.38
2022-09-05T10:26:24.759Z,19.26
2022-09-05T10:29:36.696Z,19.18
2022-09-05T10:35:04.672Z,18.95
2022-09-05T10:36:17.459Z,18.92
2022-09-05T10:39:24.826Z,18.88
2022-09-05T10:42:30.586Z,18.88
2022-09-05T10:45:40.417Z,18.93
2022-09-05T10:48:49.927Z,18.94
2022-09-05T10:51:58.729Z,18.86
2022-09-05T10:55:26.403Z,18.69
2022-09-05T10:59:54.183Z,18.38
2022-09-05T11:02:25.981Z,18.42
2022-09-05T11:05:29.980Z,18.44
2022-09-05T11:08:40.001Z,18.36
2022-09-05T11:11:46.930Z,18.33
2022-09-05T11:14:53.581Z,18.40
2022-09-05T11:17:59.893Z,18.46
2022-09-05T11:21:08.789Z,18.45
2022-09-05T11:24:15.900Z,18.49
2022-09-05T11:27:24.708Z,18.58
2022-09-05T11:30:38.165Z,18.56
2022-09-05T11:36:11.785Z,18.51
2022-09-05T11:40:01.997Z,18.45
2022-09-05T11:40:59.135Z,18.44
2022-09-05T11:51:06.821Z,18.68
2022-09-05T11:54:16.009Z,18.80
2022-09-05T11:57:33.831Z,18.85
2022-09-05T12:00:40.829Z,18.81
2022-09-05T12:03:58.918Z,18.82
2022-09-05T12:07:31.788Z,18.90
2022-09-05T12:10:47.339Z,18.80
2022-09-05T12:15:32.716Z,18.63
2022-09-05T12:18:19.486Z,18.70
2022-09-05T12:21:18.376Z,18.89
2022-09-05T12:25:17.983Z,18.97
2022-09-05T12:29:29.053Z,19.15
2022-09-05T12:33:32.735Z,19.38
2022-09-05T12:36:13.205Z,19.65
2022-09-05T12:41:37.137Z,19.83
2022-09-05T12:44:38.903Z,19.70
2022-09-05T12:46:26.702Z,19.48
2022-09-05T12:49:35.244Z,19.19
2022-09-05T12:52:43.667Z,19.07
2022-09-05T12:57:10.988Z,19.14
2022-09-05T13:03:03.545Z,19.56
2022-09-05T13:03:35.534Z,19.81
2022-09-05T13:06:44.780Z,19.84
2022-09-05T13:12:45.248Z,20.01
2022-09-05T13:14:53.867Z,20.12
2022-09-05T13:17:00.485Z,20.14
2022-09-05T13:20:10.570Z,20.12
2022-09-05T13:23:21.275Z,20.02
2022-09-05T13:26:41.233Z,19.99
2022-09-05T13:33:22.661Z,19.81
2022-09-05T13:38:01.206Z,19.27
2022-09-05T13:38:13.583Z,19.57
2022-09-05T13:41:27.109Z,19.02
2022-09-05T13:44:41.252Z,18.94
2022-09-05T13:51:15.909Z,18.80
2022-09-05T13:54:52.553Z,18.77
2022-09-05T13:58:11.809Z,18.84
2022-09-05T14:01:26.527Z,19.00
2022-09-05T14:08:02.585Z,19.17
2022-09-05T14:11:13.192Z,19.22
2022-09-05T14:18:12.784Z,19.47
2022-09-05T14:21:27.815Z,19.43
2022-09-05T14:24:36.703Z,19.36
2022-09-05T14:36:12.308Z,19.35
2022-09-05T14:37:53.210Z,19.48
2022-09-05T14:38:14.865Z,19.48
2022-09-05T14:42:03.583Z,19.57
2022-09-05T14:45:07.736Z,19.50
2022-09-05T14:48:14.253Z,19.44
2022-09-05T14:51:29.540Z,19.46
2022-09-05T15:02:45.268Z,19.34
2022-09-05T15:03:00.150Z,19.44
2022-09-05T15:04:57.468Z,19.55
2022-09-05T15:08:18.264Z,19.61
2022-09-05T15:12:22.076Z,19.68
2022-09-05T15:15:16.241Z,19.67
2022-09-05T15:18:21.904Z,19.55
2022-09-05T15:21:33.639Z,19.47
2022-09-05T15:24:41.363Z,19.29
2022-09-05T15:27:50.753Z,19.16
2022-09-05T15:30:57.663Z,19.05
2022-09-05T15:34:12.622Z,18.99
2022-09-05T15:37:22.299Z,18.98
2022-09-05T15:40:30.627Z,18.95
2022-09-05T15:43:36.752Z,18.96
2022-09-05T15:46:59.876Z,18.98
2022-09-05T15:50:06.103Z,18.93
2022-09-05T15:53:33.016Z,18.83
2022-09-05T15:56:39.881Z,18.68
2022-09-05T15:59:53.567Z,18.50
2022-09-05T16:03:23.094Z,18.79
2022-09-05T16:10:35.221Z,20.38
2022-09-05T16:10:45.712Z,21.87
2022-09-05T16:13:52.664Z,23.00
2022-09-05T16:23:15.173Z,23.93
2022-09-05T16:23:25.130Z,24.75
2022-09-05T16:23:53.389Z,25.27
2022-09-05T16:27:05.812Z,25.55
2022-09-05T16:30:16.541Z,25.78
2022-09-05T16:33:23.635Z,25.98
2022-09-05T16:36:31.238Z,26.05
2022-09-05T16:39:37.031Z,26.11
2022-09-05T16:42:47.916Z,26.04
2022-09-05T16:45:53.531Z,25.94
2022-09-05T16:48:59.359Z,25.70
2022-09-05T16:52:08.230Z,25.49
2022-09-05T16:55:18.401Z,24.88
2022-09-05T16:58:38.181Z,23.62
2022-09-05T17:01:47.233Z,22.50
2022-09-05T17:05:04.303Z,21.31
2022-09-05T17:08:16.235Z,20.43
2022-09-05T17:12:00.002Z,19.66
2022-09-05T17:15:09.313Z,18.97
2022-09-05T17:18:22.073Z,18.47
2022-09-05T17:23:17.335Z,18.03
2022-09-05T17:29:16.639Z,17.60
2022-09-05T17:29:42.080Z,17.19
2022-09-05T17:31:57.825Z,16.83
2022-09-05T17:35:17.100Z,16.46
2022-09-05T17:38:38.896Z,16.08
2022-09-05T17:41:45.442Z,15.75
2022-09-05T17:44:56.591Z,15.50
2022-09-05T17:48:03.999Z,15.25
2022-09-05T17:51:09.889Z,15.02
2022-09-05T17:54:18.960Z,14.86
2022-09-05T17:57:34.212Z,14.69
2022-09-05T18:00:40.902Z,14.51
2022-09-05T18:03:47.149Z,14.34
2022-09-05T18:07:00.298Z,14.16
2022-09-05T18:10:15.395Z,14.01
2022-09-05T18:13:33.362Z,13.84
2022-09-05T18:17:35.307Z,13.68
2022-09-05T18:20:14.278Z,13.52
2022-09-05T18:23:39.571Z,13.40
2022-09-05T18:26:48.926Z,13.27
2022-09-05T18:30:06.088Z,13.15
2022-09-05T18:34:03.743Z,13.02
2022-09-05T18:36:41.761Z,12.84
2022-09-05T18:39:47.707Z,12.70
2022-09-05T18:42:54.049Z,12.57
2022-09-05T18:46:08.361Z,12.47
2022-09-05T18:50:21.632Z,12.38
2022-09-05T18:52:47.245Z,12.30
2022-09-05T18:56:14.015Z,12.23
2022-09-05T18:59:24.029Z,12.13
2022-09-05T19:02:51.478Z,12.05
2022-09-05T19:06:37.082Z,11.94
2022-09-05T19:09:27.592Z,11.85
2022-09-05T19:12:38.999Z,11.75
2022-09-05T19:15:53.089Z,11.67
2022-09-05T19:23:11.351Z,11.47
2022-09-05T19:26:13.951Z,11.40
2022-09-05T19:36:46.757Z,11.33
2022-09-05T19:37:02.954Z,11.16
2022-09-05T19:37:10.871Z,11.24
2022-09-05T19:43:44.869Z,11.06
2022-09-05T19:47:33.998Z,10.97
2022-09-05T19:47:45.337Z,10.87
2022-09-05T19:49:58.644Z,10.77
2022-09-05T19:53:06.467Z,10.68
2022-09-05T19:56:12.493Z,10.59
2022-09-05T19:59:21.301Z,10.53
2022-09-05T20:02:27.187Z,10.50
2022-09-05T20:05:35.249Z,10.42
2022-09-05T20:08:42.465Z,10.37
2022-09-05T20:11:58.096Z,10.29
2022-09-05T20:15:04.715Z,10.22
2022-09-05T20:18:26.638Z,10.14
2022-09-05T20:21:35.732Z,10.10
2022-09-05T20:24:41.925Z,10.07
2022-09-05T20:27:50.170Z,10.04
2022-09-05T20:30:56.185Z,9.97
2022-09-05T20:34:10.587Z,9.90
2022-09-05T20:43:14.457Z,9.85
2022-09-05T20:43:16.800Z,9.79
2022-09-05T20:44:33.940Z,9.74
2022-09-05T20:54:05.456Z,9.70
2022-09-05T20:54:22.370Z,9.67
2022-09-05T20:54:41.186Z,9.66
2022-09-05T20:57:48.676Z,9.65
2022-09-05T21:01:21.947Z,9.64
2022-09-05T21:04:37.881Z,9.60
2022-09-05T21:07:43.654Z,9.56
2022-09-05T21:10:55.731Z,9.51
2022-09-05T21:14:04.597Z,9.49
2022-09-05T21:17:15.630Z,9.46
2022-09-05T21:20:25.255Z,9.42
2022-09-05T21:23:31.811Z,9.39
2022-09-05T21:26:37.597Z,9.38
2022-09-05T21:29:44.082Z,9.36
2022-09-05T21:32:51.986Z,9.35
2022-09-05T21:35:58.780Z,9.33
2022-09-05T21:39:05.013Z,9.28
2022-09-05T21:42:51.761Z,9.26
2022-09-05T21:47:46.807Z,9.23
2022-09-05T21:49:07.451Z,9.23
2022-09-05T21:52:15.669Z,9.19
2022-09-05T21:59:20.005Z,9.25
2022-09-05T21:59:27.967Z,9.21
2022-09-05T22:02:26.730Z,9.28
2022-09-05T22:05:35.855Z,9.28
2022-09-05T22:08:41.289Z,9.26
2022-09-05T22:12:14.567Z,9.24
2022-09-05T22:15:32.471Z,9.25
2022-09-05T22:18:45.480Z,9.26
2022-09-05T22:21:52.361Z,9.23
2022-09-05T22:24:57.780Z,9.19
2022-09-05T22:28:08.746Z,9.19
2022-09-05T22:31:14.605Z,9.18
2022-09-05T22:34:20.960Z,9.21
2022-09-05T22:37:28.302Z,9.24
2022-09-05T22:40:33.829Z,9.28
2022-09-05T22:43:39.768Z,9.31
2022-09-05T22:46:45.760Z,9.35
2022-09-05T22:49:52.231Z,9.37
2022-09-05T22:53:14.899Z,9.37
2022-09-05T22:56:20.559Z,9.36
2022-09-05T22:59:26.377Z,9.32
2022-09-05T23:02:32.712Z,9.31
2022-09-05T23:05:39.397Z,9.32
2022-09-05T23:08:44.830Z,9.28
2022-09-05T23:11:50.619Z,9.27
2022-09-05T23:15:04.105Z,9.23
2022-09-05T23:18:10.080Z,9.20
2022-09-05T23:21:16.412Z,9.17
2022-09-05T23:24:22.676Z,9.15
2022-09-05T23:27:30.126Z,9.15
2022-09-05T23:30:48.603Z,9.11
2022-09-05T23:34:01.806Z,9.05
2022-09-05T23:37:08.326Z,8.98
2022-09-05T23:40:17.893Z,8.92
2022-09-05T23:43:27.452Z,8.87
2022-09-05T23:46:33.656Z,8.84
2022-09-05T23:49:40.190Z,8.79
2022-09-05T23:52:47.286Z,8.73
2022-09-05T23:56:15.867Z,8.68
2022-09-05T23:59:23.010Z,8.62
